createdAt,value
2022-12-26T15:31:29.658Z,3.58
2022-12-26T15:33:59.427Z,3.25
2022-12-26T15:36:28.443Z,4.82
2022-12-26T15:39:17.051Z,4.63
2022-12-26T15:41:47.043Z,4.35
2022-12-26T15:44:31.340Z,4.97
2022-12-26T15:47:07.577Z,6.05
2022-12-26T15:50:03.214Z,5.32
2022-12-26T15:52:50.667Z,5.25
2022-12-26T15:55:30.289Z,5.00
2022-12-26T15:57:58.979Z,4.45
2022-12-26T16:00:39.680Z,4.15
2022-12-26T16:05:44.451Z,5.57
2022-12-26T16:08:36.248Z,6.78
2022-12-26T16:11:19.694Z,8.18
2022-12-26T16:13:53.990Z,6.63
2022-12-26T16:16:27.872Z,9.65
2022-12-26T16:18:54.592Z,9.43
2022-12-26T16:21:41.450Z,8.88
2022-12-26T16:24:08.415Z,6.40
2022-12-26T16:26:39.160Z,6.57
2022-12-26T16:29:05.795Z,5.70
2022-12-26T16:31:32.184Z,5.05
2022-12-26T16:33:59.137Z,12.32
2022-12-26T16:36:26.803Z,6.40
2022-12-26T16:38:53.779Z,8.18
2022-12-26T16:41:27.920Z,9.93
2022-12-26T16:43:55.248Z,7.47
2022-12-26T16:46:24.852Z,6.32
2022-12-26T16:48:58.370Z,7.50
2022-12-26T16:51:36.572Z,6.40
2022-12-26T16:54:26.477Z,7.25
2022-12-26T16:57:05.681Z,5.47
2022-12-26T16:59:40.240Z,16.17
2022-12-26T17:02:13.158Z,12.02
2022-12-26T17:04:39.897Z,8.02
2022-12-26T17:07:06.992Z,6.70
2022-12-26T17:09:40.853Z,5.70
2022-12-26T17:12:08.459Z,6.45
2022-12-26T17:14:36.696Z,5.10
2022-12-26T17:17:04.361Z,4.88
2022-12-26T17:19:32.581Z,5.35
2022-12-26T17:22:14.194Z,5.28
2022-12-26T17:24:41.047Z,4.60
2022-12-26T17:27:26.127Z,5.30
2022-12-26T17:29:59.463Z,8.63
2022-12-26T17:32:25.789Z,15.43
2022-12-26T17:34:52.198Z,10.45
2022-12-26T17:37:21.799Z,9.00
2022-12-26T17:40:06.853Z,5.78
2022-12-26T17:42:49.478Z,4.85
2022-12-26T17:45:18.006Z,9.80
2022-12-26T17:47:44.732Z,5.07
2022-12-26T17:50:11.074Z,5.00
2022-12-26T17:52:37.844Z,6.28
2022-12-26T17:55:05.324Z,7.50
2022-12-26T17:57:31.818Z,7.30
2022-12-26T17:59:58.165Z,4.80
2022-12-26T18:02:24.697Z,4.28
2022-12-26T18:04:51.201Z,4.75
2022-12-26T18:07:27.257Z,4.85
2022-12-26T18:09:57.344Z,4.22
2022-12-26T18:12:23.692Z,4.90
2022-12-26T18:14:49.979Z,4.63
2022-12-26T18:17:19.415Z,5.35
2022-12-26T18:19:46.238Z,4.70
2022-12-26T18:22:13.820Z,5.30
2022-12-26T18:24:40.086Z,5.00
2022-12-26T18:27:06.684Z,3.72
2022-12-26T18:29:32.930Z,3.67
2022-12-26T18:31:59.937Z,5.32
2022-12-26T18:34:28.612Z,3.45
2022-12-26T18:36:54.852Z,3.47
2022-12-26T18:39:21.234Z,3.50
2022-12-26T18:41:47.471Z,5.85
2022-12-26T18:44:15.670Z,6.30
2022-12-26T18:46:41.916Z,4.20
2022-12-26T18:49:09.214Z,3.30
2022-12-26T18:51:37.728Z,3.30
2022-12-26T18:54:04.083Z,4.03
2022-12-26T18:56:30.319Z,3.75
2022-12-26T18:58:58.172Z,4.50
2022-12-26T19:01:24.850Z,3.90
2022-12-26T19:03:51.339Z,5.45
2022-12-26T19:06:28.015Z,5.07
2022-12-26T19:08:54.417Z,3.53
2022-12-26T19:11:21.023Z,3.67
2022-12-26T19:13:47.733Z,3.65
2022-12-26T19:16:14.576Z,4.15
2022-12-26T19:18:41.026Z,3.75
2022-12-26T19:21:11.123Z,4.18
2022-12-26T19:23:37.428Z,4.20
2022-12-26T19:26:08.316Z,3.92
2022-12-26T19:28:34.604Z,3.83
2022-12-26T19:31:06.244Z,3.80
2022-12-26T19:33:32.482Z,3.55
2022-12-26T19:35:58.782Z,4.20
2022-12-26T19:38:25.106Z,3.20
2022-12-26T19:40:51.399Z,5.70
2022-12-26T19:43:17.737Z,2.92
2022-12-26T19:45:45.680Z,3.97
2022-12-26T19:48:11.978Z,6.40
2022-12-26T19:50:38.267Z,9.23
2022-12-26T19:53:04.581Z,4.88
2022-12-26T19:55:30.988Z,4.75
2022-12-26T19:57:57.352Z,5.30
2022-12-26T20:00:23.608Z,4.78
2022-12-26T20:02:50.008Z,5.55
2022-12-26T20:05:16.344Z,5.38
2022-12-26T20:07:42.579Z,5.93
2022-12-26T20:10:09.083Z,4.97
2022-12-26T20:12:35.487Z,4.60
2022-12-26T20:15:01.972Z,4.15
2022-12-26T20:17:28.326Z,3.78
2022-12-26T20:19:54.735Z,3.17
2022-12-26T20:22:21.058Z,5.45
2022-12-26T20:24:47.375Z,5.35
2022-12-26T20:27:13.808Z,4.10
2022-12-26T20:29:40.063Z,3.53
2022-12-26T20:32:06.349Z,3.53
2022-12-26T20:34:32.671Z,4.38
2022-12-26T20:36:59.157Z,3.25
2022-12-26T20:39:25.639Z,3.50
2022-12-26T20:41:51.961Z,2.70
2022-12-26T20:44:18.711Z,4.50
2022-12-26T20:46:45.606Z,3.72
2022-12-26T20:49:11.974Z,3.80
2022-12-26T20:51:39.361Z,3.95
2022-12-26T20:54:06.469Z,3.45
2022-12-26T20:56:32.900Z,3.40
2022-12-26T20:58:59.578Z,3.40
2022-12-26T21:01:26.343Z,3.45
2022-12-26T21:03:53.489Z,2.90
2022-12-26T21:06:23.877Z,2.90
2022-12-26T21:08:50.954Z,4.65
2022-12-26T21:11:18.682Z,3.35
2022-12-26T21:13:45.566Z,2.60
2022-12-26T21:16:23.131Z,2.95
2022-12-26T21:18:49.917Z,2.75
2022-12-26T21:21:18.009Z,2.85
2022-12-26T21:23:44.359Z,2.78
2022-12-26T21:26:10.721Z,2.60
2022-12-26T21:28:37.394Z,2.60
2022-12-26T21:31:03.869Z,2.13
2022-12-26T21:33:30.297Z,2.67
2022-12-26T21:35:56.672Z,3.45
2022-12-26T21:38:23.780Z,2.72
2022-12-26T21:40:50.164Z,2.63
2022-12-26T21:43:16.709Z,2.90
2022-12-26T21:45:43.307Z,2.38
2022-12-26T21:48:09.611Z,3.53
2022-12-26T21:50:36.107Z,2.90
2022-12-26T21:53:02.451Z,3.08
2022-12-26T21:55:30.884Z,2.88
2022-12-26T21:57:59.265Z,3.20
2022-12-26T22:00:25.721Z,3.20
2022-12-26T22:03:10.429Z,3.10
2022-12-26T22:05:38.208Z,3.40
2022-12-26T22:08:08.209Z,3.88
2022-12-26T22:10:54.013Z,3.00
2022-12-26T22:13:21.454Z,4.25
2022-12-26T22:16:04.513Z,3.45
2022-12-26T22:18:32.111Z,3.38
2022-12-26T22:21:11.706Z,3.45
2022-12-26T22:23:38.525Z,3.30
2022-12-26T22:26:05.586Z,3.88
2022-12-26T22:28:32.225Z,3.67
2022-12-26T22:30:59.231Z,3.40
2022-12-26T22:33:25.640Z,3.47
2022-12-26T22:35:51.981Z,3.75
2022-12-26T22:38:18.478Z,4.20
2022-12-26T22:40:55.101Z,4.22
2022-12-26T22:43:21.639Z,3.67
2022-12-26T22:45:48.086Z,4.20
2022-12-26T22:48:14.440Z,3.67
2022-12-26T22:50:44.496Z,5.20
